Terminal Aerodrome Forecast
Issued by NWS Charleston, WV

Current Version | Previous Version | Graphics & Text | Print | Product List | Glossary On
Versions: 1 2 3 4 5 6 7 8 9 10 11 12 13 14 15 16 17 18 19 20 21 22 23 24 25 26 27 28
006
FTUS41 KRLX 050327 AAB
TAFHTS
TAF AMD
KHTS 050327Z 0503/0524 19004KT 5SM -SHRA OVC003
     FM050600 23005KT 6SM BR OVC003
     FM051500 VRB02KT 6SM BR BKN011
     FM051800 VRB02KT 6SM BR BKN040=

USA.gov is the U.S. government's official web portal to all federal, state and local government web resources and services.